sensor_id;sensor_type;location;lat;lon;timestamp;temperature;humidity
1680;DHT22;838;51.794;12.258;2023-07-02T00:01:46;19.40;84.30
1680;DHT22;838;51.794;12.258;2023-07-02T00:04:13;19.40;83.90
1680;DHT22;838;51.794;12.258;2023-07-02T00:06:44;19.30;85.80
1680;DHT22;838;51.794;12.258;2023-07-02T00:09:10;19.20;87.90
1680;DHT22;838;51.794;12.258;2023-07-02T00:11:38;19.10;88.50
1680;DHT22;838;51.794;12.258;2023-07-02T00:14:05;18.90;90.20
1680;DHT22;838;51.794;12.258;2023-07-02T00:16:31;18.90;90.30
1680;DHT22;838;51.794;12.258;2023-07-02T00:18:56;18.90;90.40
1680;DHT22;838;51.794;12.258;2023-07-02T00:21:22;18.90;90.90
1680;DHT22;838;51.794;12.258;2023-07-02T00:23:54;19.00;90.50
1680;DHT22;838;51.794;12.258;2023-07-02T00:26:23;18.90;90.90
1680;DHT22;838;51.794;12.258;2023-07-02T00:28:49;19.00;90.60
1680;DHT22;838;51.794;12.258;2023-07-02T00:31:14;19.00;90.30
1680;DHT22;838;51.794;12.258;2023-07-02T00:33:40;19.00;89.40
1680;DHT22;838;51.794;12.258;2023-07-02T00:36:06;19.10;89.80
1680;DHT22;838;51.794;12.258;2023-07-02T00:38:31;19.10;89.20
1680;DHT22;838;51.794;12.258;2023-07-02T00:40:57;18.90;88.60
1680;DHT22;838;51.794;12.258;2023-07-02T00:43:23;18.70;90.70
1680;DHT22;838;51.794;12.258;2023-07-02T00:45:49;18.70;91.00
1680;DHT22;838;51.794;12.258;2023-07-02T00:48:15;18.70;90.90
1680;DHT22;838;51.794;12.258;2023-07-02T00:50:41;18.80;90.70
1680;DHT22;838;51.794;12.258;2023-07-02T00:53:06;19.00;87.50
1680;DHT22;838;51.794;12.258;2023-07-02T00:55:32;19.00;86.50
1680;DHT22;838;51.794;12.258;2023-07-02T00:57:58;18.90;86.30
1680;DHT22;838;51.794;12.258;2023-07-02T01:00:23;18.80;87.10
1680;DHT22;838;51.794;12.258;2023-07-02T01:02:56;18.70;88.20
1680;DHT22;838;51.794;12.258;2023-07-02T01:05:26;18.90;87.40
1680;DHT22;838;51.794;12.258;2023-07-02T01:07:57;19.00;85.60
1680;DHT22;838;51.794;12.258;2023-07-02T01:10:24;18.90;82.70
1680;DHT22;838;51.794;12.258;2023-07-02T01:12:50;18.90;83.30
1680;DHT22;838;51.794;12.258;2023-07-02T01:15:16;18.80;82.10
1680;DHT22;838;51.794;12.258;2023-07-02T01:17:42;18.70;83.40
1680;DHT22;838;51.794;12.258;2023-07-02T01:20:09;18.80;82.10
1680;DHT22;838;51.794;12.258;2023-07-02T01:22:35;18.90;82.30
1680;DHT22;838;51.794;12.258;2023-07-02T01:25:01;19.00;79.60
1680;DHT22;838;51.794;12.258;2023-07-02T01:27:29;19.10;78.30
1680;DHT22;838;51.794;12.258;2023-07-02T01:29:55;19.10;78.50
1680;DHT22;838;51.794;12.258;2023-07-02T01:32:21;19.20;77.20
1680;DHT22;838;51.794;12.258;2023-07-02T01:34:47;19.40;74.10
1680;DHT22;838;51.794;12.258;2023-07-02T01:37:19;19.50;73.90
1680;DHT22;838;51.794;12.258;2023-07-02T01:39:45;19.50;73.50
1680;DHT22;838;51.794;12.258;2023-07-02T01:42:16;19.40;73.80
1680;DHT22;838;51.794;12.258;2023-07-02T01:44:46;19.40;74.10
1680;DHT22;838;51.794;12.258;2023-07-02T01:47:12;19.40;74.10
1680;DHT22;838;51.794;12.258;2023-07-02T01:49:38;19.60;70.20
1680;DHT22;838;51.794;12.258;2023-07-02T01:52:05;19.80;68.30
1680;DHT22;838;51.794;12.258;2023-07-02T01:54:31;19.90;65.80
1680;DHT22;838;51.794;12.258;2023-07-02T01:56:57;19.90;65.70
1680;DHT22;838;51.794;12.258;2023-07-02T01:59:24;20.00;62.80
1680;DHT22;838;51.794;12.258;2023-07-02T02:01:49;20.00;63.70
1680;DHT22;838;51.794;12.258;2023-07-02T02:04:15;20.10;61.10
1680;DHT22;838;51.794;12.258;2023-07-02T02:06:41;20.10;61.70
1680;DHT22;838;51.794;12.258;2023-07-02T02:09:08;20.20;60.40
1680;DHT22;838;51.794;12.258;2023-07-02T02:11:39;20.20;58.90
1680;DHT22;838;51.794;12.258;2023-07-02T02:14:05;20.20;57.90
1680;DHT22;838;51.794;12.258;2023-07-02T02:16:31;20.30;56.90
1680;DHT22;838;51.794;12.258;2023-07-02T02:18:59;20.20;56.80
1680;DHT22;838;51.794;12.258;2023-07-02T02:21:25;20.10;56.90
1680;DHT22;838;51.794;12.258;2023-07-02T02:23:51;20.00;56.90
1680;DHT22;838;51.794;12.258;2023-07-02T02:26:16;20.00;57.60
1680;DHT22;838;51.794;12.258;2023-07-02T02:28:42;19.90;59.70
1680;DHT22;838;51.794;12.258;2023-07-02T02:31:08;19.80;58.40
1680;DHT22;838;51.794;12.258;2023-07-02T02:33:34;19.80;59.20
1680;DHT22;838;51.794;12.258;2023-07-02T02:36:04;19.90;58.00
1680;DHT22;838;51.794;12.258;2023-07-02T02:38:29;19.90;57.00
1680;DHT22;838;51.794;12.258;2023-07-02T02:40:55;19.90;55.40
1680;DHT22;838;51.794;12.258;2023-07-02T02:43:21;19.80;56.70
1680;DHT22;838;51.794;12.258;2023-07-02T02:45:47;19.60;57.80
1680;DHT22;838;51.794;12.258;2023-07-02T02:48:13;19.50;60.60
1680;DHT22;838;51.794;12.258;2023-07-02T02:50:39;19.60;59.00
1680;DHT22;838;51.794;12.258;2023-07-02T02:53:07;19.40;58.70
1680;DHT22;838;51.794;12.258;2023-07-02T02:55:33;19.30;59.90
1680;DHT22;838;51.794;12.258;2023-07-02T02:57:58;19.30;61.20
1680;DHT22;838;51.794;12.258;2023-07-02T03:00:24;19.30;60.50
1680;DHT22;838;51.794;12.258;2023-07-02T03:02:50;19.30;59.40
1680;DHT22;838;51.794;12.258;2023-07-02T03:05:16;19.30;58.20
1680;DHT22;838;51.794;12.258;2023-07-02T03:07:42;19.30;59.30
1680;DHT22;838;51.794;12.258;2023-07-02T03:10:08;19.30;58.30
1680;DHT22;838;51.794;12.258;2023-07-02T03:12:34;19.40;58.40
1680;DHT22;838;51.794;12.258;2023-07-02T03:14:59;19.20;60.30
1680;DHT22;838;51.794;12.258;2023-07-02T03:17:25;19.10;61.80
1680;DHT22;838;51.794;12.258;2023-07-02T03:19:51;19.10;62.90
1680;DHT22;838;51.794;12.258;2023-07-02T03:22:17;19.10;63.10
1680;DHT22;838;51.794;12.258;2023-07-02T03:24:43;19.00;62.60
1680;DHT22;838;51.794;12.258;2023-07-02T03:27:08;18.80;64.70
1680;DHT22;838;51.794;12.258;2023-07-02T03:29:34;18.70;65.30
1680;DHT22;838;51.794;12.258;2023-07-02T03:32:01;18.60;65.00
1680;DHT22;838;51.794;12.258;2023-07-02T03:34:27;18.50;68.50
1680;DHT22;838;51.794;12.258;2023-07-02T03:36:52;18.40;68.50
1680;DHT22;838;51.794;12.258;2023-07-02T03:39:18;18.40;68.50
1680;DHT22;838;51.794;12.258;2023-07-02T03:41:44;18.50;67.00
1680;DHT22;838;51.794;12.258;2023-07-02T03:44:10;18.50;64.00
1680;DHT22;838;51.794;12.258;2023-07-02T03:46:36;18.50;64.50
1680;DHT22;838;51.794;12.258;2023-07-02T03:49:04;18.40;65.00
1680;DHT22;838;51.794;12.258;2023-07-02T03:51:31;18.30;64.10
1680;DHT22;838;51.794;12.258;2023-07-02T03:53:58;18.20;63.90
1680;DHT22;838;51.794;12.258;2023-07-02T03:56:24;18.10;62.90
1680;DHT22;838;51.794;12.258;2023-07-02T03:58:50;18.10;61.30
1680;DHT22;838;51.794;12.258;2023-07-02T04:01:16;18.20;59.20
1680;DHT22;838;51.794;12.258;2023-07-02T04:03:50;18.20;56.70
1680;DHT22;838;51.794;12.258;2023-07-02T04:06:16;18.40;55.10
1680;DHT22;838;51.794;12.258;2023-07-02T04:08:43;18.50;52.60
1680;DHT22;838;51.794;12.258;2023-07-02T04:11:09;18.50;53.00
1680;DHT22;838;51.794;12.258;2023-07-02T04:13:35;18.50;53.30
1680;DHT22;838;51.794;12.258;2023-07-02T04:16:01;18.50;52.60
1680;DHT22;838;51.794;12.258;2023-07-02T04:18:26;18.60;51.60
1680;DHT22;838;51.794;12.258;2023-07-02T04:20:54;18.70;51.50
1680;DHT22;838;51.794;12.258;2023-07-02T04:23:20;18.70;50.80
1680;DHT22;838;51.794;12.258;2023-07-02T04:25:45;18.60;50.10
1680;DHT22;838;51.794;12.258;2023-07-02T04:28:11;18.60;50.70
1680;DHT22;838;51.794;12.258;2023-07-02T04:30:37;18.60;49.40
1680;DHT22;838;51.794;12.258;2023-07-02T04:33:03;18.70;48.00
1680;DHT22;838;51.794;12.258;2023-07-02T04:35:28;18.90;46.40
1680;DHT22;838;51.794;12.258;2023-07-02T04:37:54;19.00;43.90
1680;DHT22;838;51.794;12.258;2023-07-02T04:40:20;19.10;42.90
1680;DHT22;838;51.794;12.258;2023-07-02T04:42:46;19.30;42.10
1680;DHT22;838;51.794;12.258;2023-07-02T04:45:15;19.40;40.60
1680;DHT22;838;51.794;12.258;2023-07-02T04:47:45;19.30;40.20
1680;DHT22;838;51.794;12.258;2023-07-02T04:50:11;19.30;38.60
1680;DHT22;838;51.794;12.258;2023-07-02T04:52:38;19.40;37.20
1680;DHT22;838;51.794;12.258;2023-07-02T04:55:04;19.50;36.60
1680;DHT22;838;51.794;12.258;2023-07-02T04:57:30;19.50;37.40
1680;DHT22;838;51.794;12.258;2023-07-02T04:59:56;19.70;36.00
1680;DHT22;838;51.794;12.258;2023-07-02T05:02:22;19.70;35.30
1680;DHT22;838;51.794;12.258;2023-07-02T05:04:48;19.60;37.40
1680;DHT22;838;51.794;12.258;2023-07-02T05:07:15;19.80;36.00
1680;DHT22;838;51.794;12.258;2023-07-02T05:09:40;19.90;35.50
1680;DHT22;838;51.794;12.258;2023-07-02T05:12:06;19.90;34.70
1680;DHT22;838;51.794;12.258;2023-07-02T05:14:32;19.90;35.00
1680;DHT22;838;51.794;12.258;2023-07-02T05:16:58;19.90;32.70
1680;DHT22;838;51.794;12.258;2023-07-02T05:19:23;19.90;31.10
1680;DHT22;838;51.794;12.258;2023-07-02T05:21:49;19.80;31.20
1680;DHT22;838;51.794;12.258;2023-07-02T05:24:15;19.70;34.00
1680;DHT22;838;51.794;12.258;2023-07-02T05:26:40;19.60;36.20
1680;DHT22;838;51.794;12.258;2023-07-02T05:29:06;19.60;36.40
1680;DHT22;838;51.794;12.258;2023-07-02T05:31:32;19.60;34.90
1680;DHT22;838;51.794;12.258;2023-07-02T05:33:59;19.60;34.90
1680;DHT22;838;51.794;12.258;2023-07-02T05:36:25;19.80;35.70
1680;DHT22;838;51.794;12.258;2023-07-02T05:38:51;20.00;36.00
1680;DHT22;838;51.794;12.258;2023-07-02T05:41:23;20.10;36.00
1680;DHT22;838;51.794;12.258;2023-07-02T05:43:49;20.20;36.00
1680;DHT22;838;51.794;12.258;2023-07-02T05:46:15;20.40;35.80
1680;DHT22;838;51.794;12.258;2023-07-02T05:48:41;20.60;33.20
1680;DHT22;838;51.794;12.258;2023-07-02T05:51:08;20.60;34.10
1680;DHT22;838;51.794;12.258;2023-07-02T05:53:34;20.60;34.80
1680;DHT22;838;51.794;12.258;2023-07-02T05:55:59;20.70;35.20
1680;DHT22;838;51.794;12.258;2023-07-02T05:58:25;20.80;32.30
1680;DHT22;838;51.794;12.258;2023-07-02T06:00:51;20.70;31.30
1680;DHT22;838;51.794;12.258;2023-07-02T06:03:17;20.70;34.10
1680;DHT22;838;51.794;12.258;2023-07-02T06:05:48;20.80;30.80
1680;DHT22;838;51.794;12.258;2023-07-02T06:08:16;20.80;28.50
1680;DHT22;838;51.794;12.258;2023-07-02T06:10:45;20.70;29.20
1680;DHT22;838;51.794;12.258;2023-07-02T06:13:11;20.40;27.40
1680;DHT22;838;51.794;12.258;2023-07-02T06:15:37;20.30;29.10
1680;DHT22;838;51.794;12.258;2023-07-02T06:18:03;20.50;28.90
1680;DHT22;838;51.794;12.258;2023-07-02T06:20:28;20.40;30.00
1680;DHT22;838;51.794;12.258;2023-07-02T06:22:54;20.20;31.00
1680;DHT22;838;51.794;12.258;2023-07-02T06:25:20;20.20;34.70
1680;DHT22;838;51.794;12.258;2023-07-02T06:27:46;20.20;34.70
1680;DHT22;838;51.794;12.258;2023-07-02T06:30:11;20.20;33.30
1680;DHT22;838;51.794;12.258;2023-07-02T06:32:37;20.30;34.20
1680;DHT22;838;51.794;12.258;2023-07-02T06:35:04;20.20;31.10
1680;DHT22;838;51.794;12.258;2023-07-02T06:37:32;20.30;31.90
1680;DHT22;838;51.794;12.258;2023-07-02T06:39:57;20.30;25.00
1680;DHT22;838;51.794;12.258;2023-07-02T06:42:24;20.80;25.70
1680;DHT22;838;51.794;12.258;2023-07-02T06:44:50;21.00;20.20
1680;DHT22;838;51.794;12.258;2023-07-02T06:47:16;21.30;20.10
1680;DHT22;838;51.794;12.258;2023-07-02T06:49:41;21.50;12.20
1680;DHT22;838;51.794;12.258;2023-07-02T06:52:07;21.60;14.10
1680;DHT22;838;51.794;12.258;2023-07-02T06:54:33;21.70;12.50
1680;DHT22;838;51.794;12.258;2023-07-02T06:56:59;21.90;11.60
1680;DHT22;838;51.794;12.258;2023-07-02T06:59:25;21.90;13.00
1680;DHT22;838;51.794;12.258;2023-07-02T07:01:51;21.70;8.60
1680;DHT22;838;51.794;12.258;2023-07-02T07:04:17;21.60;9.50
1680;DHT22;838;51.794;12.258;2023-07-02T07:06:42;21.70;10.00
1680;DHT22;838;51.794;12.258;2023-07-02T07:09:08;21.70;9.40
1680;DHT22;838;51.794;12.258;2023-07-02T07:11:34;21.70;11.00
1680;DHT22;838;51.794;12.258;2023-07-02T07:14:00;21.60;9.00
1680;DHT22;838;51.794;12.258;2023-07-02T07:16:26;21.60;11.20
1680;DHT22;838;51.794;12.258;2023-07-02T07:18:58;22.00;11.80
1680;DHT22;838;51.794;12.258;2023-07-02T07:21:24;22.10;10.00
1680;DHT22;838;51.794;12.258;2023-07-02T07:23:50;22.10;9.30
1680;DHT22;838;51.794;12.258;2023-07-02T07:26:15;21.80;10.00
1680;DHT22;838;51.794;12.258;2023-07-02T07:28:41;21.70;10.50
1680;DHT22;838;51.794;12.258;2023-07-02T07:31:07;21.50;11.60
1680;DHT22;838;51.794;12.258;2023-07-02T07:33:33;21.30;13.80
1680;DHT22;838;51.794;12.258;2023-07-02T07:35:59;21.30;15.20
1680;DHT22;838;51.794;12.258;2023-07-02T07:38:25;21.40;13.90
1680;DHT22;838;51.794;12.258;2023-07-02T07:40:51;21.30;12.90
1680;DHT22;838;51.794;12.258;2023-07-02T07:43:17;21.30;14.90
1680;DHT22;838;51.794;12.258;2023-07-02T07:45:43;21.50;14.50
1680;DHT22;838;51.794;12.258;2023-07-02T07:48:08;21.30;14.40
1680;DHT22;838;51.794;12.258;2023-07-02T07:50:34;21.20;17.80
1680;DHT22;838;51.794;12.258;2023-07-02T07:53:00;21.20;19.00
1680;DHT22;838;51.794;12.258;2023-07-02T07:55:26;21.10;20.80
1680;DHT22;838;51.794;12.258;2023-07-02T07:57:51;21.10;22.30
1680;DHT22;838;51.794;12.258;2023-07-02T08:00:20;21.30;20.90
1680;DHT22;838;51.794;12.258;2023-07-02T08:02:51;21.50;20.50
1680;DHT22;838;51.794;12.258;2023-07-02T08:05:18;21.50;18.60
1680;DHT22;838;51.794;12.258;2023-07-02T08:07:43;21.30;19.20
1680;DHT22;838;51.794;12.258;2023-07-02T08:10:09;21.20;20.80
1680;DHT22;838;51.794;12.258;2023-07-02T08:12:35;20.90;20.80
1680;DHT22;838;51.794;12.258;2023-07-02T08:15:01;20.80;19.60
1680;DHT22;838;51.794;12.258;2023-07-02T08:17:27;20.70;20.10
1680;DHT22;838;51.794;12.258;2023-07-02T08:19:52;20.70;17.80
1680;DHT22;838;51.794;12.258;2023-07-02T08:22:18;20.90;18.80
1680;DHT22;838;51.794;12.258;2023-07-02T08:24:44;20.60;18.80
1680;DHT22;838;51.794;12.258;2023-07-02T08:27:11;20.40;23.40
1680;DHT22;838;51.794;12.258;2023-07-02T08:29:39;20.20;27.60
1680;DHT22;838;51.794;12.258;2023-07-02T08:32:05;19.80;35.80
1680;DHT22;838;51.794;12.258;2023-07-02T08:34:31;19.10;40.50
1680;DHT22;838;51.794;12.258;2023-07-02T08:36:57;18.40;32.90
1680;DHT22;838;51.794;12.258;2023-07-02T08:39:22;18.00;49.00
1680;DHT22;838;51.794;12.258;2023-07-02T08:41:48;17.80;56.80
1680;DHT22;838;51.794;12.258;2023-07-02T08:44:16;17.90;58.70
1680;DHT22;838;51.794;12.258;2023-07-02T08:46:44;17.80;59.40
1680;DHT22;838;51.794;12.258;2023-07-02T08:49:10;17.90;56.20
1680;DHT22;838;51.794;12.258;2023-07-02T08:51:36;18.00;55.20
1680;DHT22;838;51.794;12.258;2023-07-02T08:54:03;18.10;50.20
1680;DHT22;838;51.794;12.258;2023-07-02T08:56:29;18.30;51.40
1680;DHT22;838;51.794;12.258;2023-07-02T08:58:55;18.30;49.40
1680;DHT22;838;51.794;12.258;2023-07-02T09:01:21;18.50;50.40
1680;DHT22;838;51.794;12.258;2023-07-02T09:03:47;18.90;50.10
1680;DHT22;838;51.794;12.258;2023-07-02T09:06:18;19.20;42.00
1680;DHT22;838;51.794;12.258;2023-07-02T09:08:44;19.90;40.60
1680;DHT22;838;51.794;12.258;2023-07-02T09:11:14;20.20;37.90
1680;DHT22;838;51.794;12.258;2023-07-02T09:13:48;20.50;36.90
1680;DHT22;838;51.794;12.258;2023-07-02T09:19:34;21.10;26.30
1680;DHT22;838;51.794;12.258;2023-07-02T09:22:01;21.50;17.90
1680;DHT22;838;51.794;12.258;2023-07-02T09:24:29;21.40;14.70
1680;DHT22;838;51.794;12.258;2023-07-02T09:27:00;21.60;18.00
1680;DHT22;838;51.794;12.258;2023-07-02T09:31:54;22.80;7.00
1680;DHT22;838;51.794;12.258;2023-07-02T09:34:30;22.90;2.10
1680;DHT22;838;51.794;12.258;2023-07-02T09:36:57;22.50;2.10
1680;DHT22;838;51.794;12.258;2023-07-02T09:39:31;22.20;5.90
1680;DHT22;838;51.794;12.258;2023-07-02T09:42:01;22.50;9.60
1680;DHT22;838;51.794;12.258;2023-07-02T09:44:27;24.30;1.00
1680;DHT22;838;51.794;12.258;2023-07-02T09:47:05;25.30;1.00
1680;DHT22;838;51.794;12.258;2023-07-02T09:49:35;25.50;1.00
1680;DHT22;838;51.794;12.258;2023-07-02T09:52:03;25.60;1.00
1680;DHT22;838;51.794;12.258;2023-07-02T09:54:29;25.20;1.00
1680;DHT22;838;51.794;12.258;2023-07-02T09:56:59;25.80;1.00
1680;DHT22;838;51.794;12.258;2023-07-02T09:59:25;26.40;1.00
1680;DHT22;838;51.794;12.258;2023-07-02T10:01:51;27.20;1.00
1680;DHT22;838;51.794;12.258;2023-07-02T10:04:18;27.60;1.00
1680;DHT22;838;51.794;12.258;2023-07-02T10:06:52;27.90;1.00
1680;DHT22;838;51.794;12.258;2023-07-02T10:09:18;28.20;1.00
1680;DHT22;838;51.794;12.258;2023-07-02T10:11:45;26.80;1.00
1680;DHT22;838;51.794;12.258;2023-07-02T10:14:11;25.30;1.00
1680;DHT22;838;51.794;12.258;2023-07-02T10:16:50;24.40;1.00
1680;DHT22;838;51.794;12.258;2023-07-02T10:19:16;23.90;1.00
1680;DHT22;838;51.794;12.258;2023-07-02T10:21:42;23.40;1.00
1680;DHT22;838;51.794;12.258;2023-07-02T10:24:15;23.30;1.00
1680;DHT22;838;51.794;12.258;2023-07-02T10:27:01;23.50;1.00
1680;DHT22;838;51.794;12.258;2023-07-02T10:29:28;23.80;1.00
1680;DHT22;838;51.794;12.258;2023-07-02T10:31:55;23.90;1.00
1680;DHT22;838;51.794;12.258;2023-07-02T10:34:35;24.30;1.00
1680;DHT22;838;51.794;12.258;2023-07-02T10:37:02;24.60;1.00
1680;DHT22;838;51.794;12.258;2023-07-02T10:39:31;24.50;1.00
1680;DHT22;838;51.794;12.258;2023-07-02T10:42:07;24.10;1.00
1680;DHT22;838;51.794;12.258;2023-07-02T10:44:34;23.30;1.00
1680;DHT22;838;51.794;12.258;2023-07-02T10:47:03;23.00;1.00
1680;DHT22;838;51.794;12.258;2023-07-02T10:49:33;23.00;1.00
1680;DHT22;838;51.794;12.258;2023-07-02T10:52:02;23.20;1.00
1680;DHT22;838;51.794;12.258;2023-07-02T10:54:43;23.30;1.00
1680;DHT22;838;51.794;12.258;2023-07-02T10:57:10;23.30;1.00
1680;DHT22;838;51.794;12.258;2023-07-02T10:59:37;23.10;1.00
1680;DHT22;838;51.794;12.258;2023-07-02T11:02:03;23.10;1.00
1680;DHT22;838;51.794;12.258;2023-07-02T11:04:33;23.20;1.00
1680;DHT22;838;51.794;12.258;2023-07-02T11:07:00;23.10;1.00
1680;DHT22;838;51.794;12.258;2023-07-02T11:09:26;22.90;1.00
1680;DHT22;838;51.794;12.258;2023-07-02T11:11:57;22.80;1.00
1680;DHT22;838;51.794;12.258;2023-07-02T11:14:31;22.80;1.00
1680;DHT22;838;51.794;12.258;2023-07-02T11:16:59;23.00;1.00
1680;DHT22;838;51.794;12.258;2023-07-02T11:19:25;23.20;1.00
1680;DHT22;838;51.794;12.258;2023-07-02T11:21:55;23.20;1.00
1680;DHT22;838;51.794;12.258;2023-07-02T11:26:54;23.10;1.00
1680;DHT22;838;51.794;12.258;2023-07-02T11:29:20;23.30;1.00
1680;DHT22;838;51.794;12.258;2023-07-02T11:31:47;23.40;1.00
1680;DHT22;838;51.794;12.258;2023-07-02T11:34:18;23.30;1.00
1680;DHT22;838;51.794;12.258;2023-07-02T11:36:44;23.30;1.00
1680;DHT22;838;51.794;12.258;2023-07-02T11:39:10;23.20;1.00
1680;DHT22;838;51.794;12.258;2023-07-02T11:41:38;23.20;1.00
1680;DHT22;838;51.794;12.258;2023-07-02T11:44:04;23.20;1.00
1680;DHT22;838;51.794;12.258;2023-07-02T11:46:30;23.40;1.00
1680;DHT22;838;51.794;12.258;2023-07-02T11:48:55;23.60;1.00
1680;DHT22;838;51.794;12.258;2023-07-02T11:51:21;23.80;1.00
1680;DHT22;838;51.794;12.258;2023-07-02T11:53:47;23.80;1.00
1680;DHT22;838;51.794;12.258;2023-07-02T11:56:13;23.50;1.00
1680;DHT22;838;51.794;12.258;2023-07-02T11:58:39;23.60;1.00
1680;DHT22;838;51.794;12.258;2023-07-02T12:01:05;23.80;1.00
1680;DHT22;838;51.794;12.258;2023-07-02T12:03:31;23.80;1.00
1680;DHT22;838;51.794;12.258;2023-07-02T12:05:56;23.70;1.00
1680;DHT22;838;51.794;12.258;2023-07-02T12:08:22;23.80;1.00
1680;DHT22;838;51.794;12.258;2023-07-02T12:10:48;23.90;1.00
1680;DHT22;838;51.794;12.258;2023-07-02T12:13:14;23.80;1.00
1680;DHT22;838;51.794;12.258;2023-07-02T12:15:40;23.50;1.00
1680;DHT22;838;51.794;12.258;2023-07-02T12:18:06;23.80;1.00
1680;DHT22;838;51.794;12.258;2023-07-02T12:20:32;23.90;1.00
1680;DHT22;838;51.794;12.258;2023-07-02T12:22:58;23.80;1.00
1680;DHT22;838;51.794;12.258;2023-07-02T12:25:23;23.70;1.00
1680;DHT22;838;51.794;12.258;2023-07-02T12:27:49;23.60;1.00
1680;DHT22;838;51.794;12.258;2023-07-02T12:30:15;23.50;1.00
1680;DHT22;838;51.794;12.258;2023-07-02T12:32:43;23.60;1.00
1680;DHT22;838;51.794;12.258;2023-07-02T12:35:09;23.60;1.00
1680;DHT22;838;51.794;12.258;2023-07-02T12:37:42;23.80;1.00
1680;DHT22;838;51.794;12.258;2023-07-02T12:40:08;23.90;1.00
1680;DHT22;838;51.794;12.258;2023-07-02T12:42:33;23.80;1.00
1680;DHT22;838;51.794;12.258;2023-07-02T12:44:59;23.70;1.00
1680;DHT22;838;51.794;12.258;2023-07-02T12:47:26;23.70;1.00
1680;DHT22;838;51.794;12.258;2023-07-02T12:49:52;23.80;1.00
1680;DHT22;838;51.794;12.258;2023-07-02T12:52:17;23.90;1.00
1680;DHT22;838;51.794;12.258;2023-07-02T12:54:43;24.10;1.00
1680;DHT22;838;51.794;12.258;2023-07-02T12:57:08;24.00;1.00
1680;DHT22;838;51.794;12.258;2023-07-02T12:59:37;24.10;1.00
1680;DHT22;838;51.794;12.258;2023-07-02T13:02:03;24.00;1.00
1680;DHT22;838;51.794;12.258;2023-07-02T13:04:29;23.90;1.00
1680;DHT22;838;51.794;12.258;2023-07-02T13:06:54;23.90;1.00
1680;DHT22;838;51.794;12.258;2023-07-02T13:09:20;24.10;1.00
1680;DHT22;838;51.794;12.258;2023-07-02T13:11:46;24.00;1.00
1680;DHT22;838;51.794;12.258;2023-07-02T13:14:12;23.80;1.00
1680;DHT22;838;51.794;12.258;2023-07-02T13:16:37;23.80;1.00
1680;DHT22;838;51.794;12.258;2023-07-02T13:19:03;23.50;1.00
1680;DHT22;838;51.794;12.258;2023-07-02T13:21:29;23.50;1.00
1680;DHT22;838;51.794;12.258;2023-07-02T13:23:55;23.40;1.00
1680;DHT22;838;51.794;12.258;2023-07-02T13:26:20;23.30;1.00
1680;DHT22;838;51.794;12.258;2023-07-02T13:28:46;23.30;1.00
1680;DHT22;838;51.794;12.258;2023-07-02T13:31:14;23.30;1.00
1680;DHT22;838;51.794;12.258;2023-07-02T13:33:40;23.50;1.00
1680;DHT22;838;51.794;12.258;2023-07-02T13:36:06;23.40;1.00
1680;DHT22;838;51.794;12.258;2023-07-02T13:38:32;23.30;1.00
1680;DHT22;838;51.794;12.258;2023-07-02T13:40:58;23.30;1.00
1680;DHT22;838;51.794;12.258;2023-07-02T13:43:24;23.40;1.00
1680;DHT22;838;51.794;12.258;2023-07-02T13:45:50;23.40;1.00
1680;DHT22;838;51.794;12.258;2023-07-02T13:48:16;23.50;1.00
1680;DHT22;838;51.794;12.258;2023-07-02T13:50:42;23.40;1.00
1680;DHT22;838;51.794;12.258;2023-07-02T13:53:08;23.60;1.00
1680;DHT22;838;51.794;12.258;2023-07-02T13:55:34;23.90;1.00
1680;DHT22;838;51.794;12.258;2023-07-02T13:58:00;24.10;1.00
1680;DHT22;838;51.794;12.258;2023-07-02T14:00:29;24.10;1.00
1680;DHT22;838;51.794;12.258;2023-07-02T14:02:55;23.80;1.00
1680;DHT22;838;51.794;12.258;2023-07-02T14:05:21;23.80;1.00
1680;DHT22;838;51.794;12.258;2023-07-02T14:07:47;23.60;1.00
1680;DHT22;838;51.794;12.258;2023-07-02T14:10:14;23.60;1.00
1680;DHT22;838;51.794;12.258;2023-07-02T14:12:41;23.50;1.00
1680;DHT22;838;51.794;12.258;2023-07-02T14:15:08;23.60;1.00
1680;DHT22;838;51.794;12.258;2023-07-02T14:17:34;23.60;1.00
1680;DHT22;838;51.794;12.258;2023-07-02T14:20:00;23.30;1.00
1680;DHT22;838;51.794;12.258;2023-07-02T14:22:26;23.60;1.00
1680;DHT22;838;51.794;12.258;2023-07-02T14:24:53;23.50;1.00
1680;DHT22;838;51.794;12.258;2023-07-02T14:27:18;23.50;1.00
1680;DHT22;838;51.794;12.258;2023-07-02T14:29:44;23.70;1.00
1680;DHT22;838;51.794;12.258;2023-07-02T14:32:13;23.90;1.00
1680;DHT22;838;51.794;12.258;2023-07-02T14:34:39;23.80;1.00
1680;DHT22;838;51.794;12.258;2023-07-02T14:37:05;23.80;1.00
1680;DHT22;838;51.794;12.258;2023-07-02T14:39:32;23.70;1.00
1680;DHT22;838;51.794;12.258;2023-07-02T14:41:57;23.50;1.00
1680;DHT22;838;51.794;12.258;2023-07-02T14:44:23;23.60;1.00
1680;DHT22;838;51.794;12.258;2023-07-02T14:46:49;23.80;1.00
1680;DHT22;838;51.794;12.258;2023-07-02T14:49:15;23.80;1.00
1680;DHT22;838;51.794;12.258;2023-07-02T14:51:40;23.70;1.00
1680;DHT22;838;51.794;12.258;2023-07-02T14:54:07;23.90;1.00
1680;DHT22;838;51.794;12.258;2023-07-02T14:56:34;23.90;1.00
1680;DHT22;838;51.794;12.258;2023-07-02T14:59:02;23.80;1.00
1680;DHT22;838;51.794;12.258;2023-07-02T15:01:28;23.90;1.00
1680;DHT22;838;51.794;12.258;2023-07-02T15:03:54;23.80;1.00
1680;DHT22;838;51.794;12.258;2023-07-02T15:06:20;23.70;1.00
1680;DHT22;838;51.794;12.258;2023-07-02T15:08:46;23.80;1.00
1680;DHT22;838;51.794;12.258;2023-07-02T15:11:13;23.90;1.00
1680;DHT22;838;51.794;12.258;2023-07-02T15:13:39;24.00;1.00
1680;DHT22;838;51.794;12.258;2023-07-02T15:16:07;23.90;1.00
1680;DHT22;838;51.794;12.258;2023-07-02T15:18:33;23.80;1.00
1680;DHT22;838;51.794;12.258;2023-07-02T15:20:59;23.70;1.00
1680;DHT22;838;51.794;12.258;2023-07-02T15:23:28;23.60;1.00
1680;DHT22;838;51.794;12.258;2023-07-02T15:25:58;23.70;1.00
1680;DHT22;838;51.794;12.258;2023-07-02T15:28:25;23.70;1.00
1680;DHT22;838;51.794;12.258;2023-07-02T15:31:07;23.60;1.00
1680;DHT22;838;51.794;12.258;2023-07-02T15:33:34;23.60;1.00
1680;DHT22;838;51.794;12.258;2023-07-02T15:36:01;23.80;1.00
1680;DHT22;838;51.794;12.258;2023-07-02T15:38:27;23.70;1.00
1680;DHT22;838;51.794;12.258;2023-07-02T15:41:08;23.70;1.00
1680;DHT22;838;51.794;12.258;2023-07-02T15:43:34;23.80;1.00
1680;DHT22;838;51.794;12.258;2023-07-02T15:46:02;23.80;1.00
1680;DHT22;838;51.794;12.258;2023-07-02T15:48:28;23.70;1.00
1680;DHT22;838;51.794;12.258;2023-07-02T15:50:53;23.70;1.00
1680;DHT22;838;51.794;12.258;2023-07-02T15:53:19;23.80;1.00
1680;DHT22;838;51.794;12.258;2023-07-02T15:55:46;23.80;1.00
1680;DHT22;838;51.794;12.258;2023-07-02T15:58:12;23.80;1.00
1680;DHT22;838;51.794;12.258;2023-07-02T16:00:39;23.80;1.00
1680;DHT22;838;51.794;12.258;2023-07-02T16:03:05;23.80;1.00
1680;DHT22;838;51.794;12.258;2023-07-02T16:05:36;23.80;1.00
1680;DHT22;838;51.794;12.258;2023-07-02T16:08:03;23.70;1.00
1680;DHT22;838;51.794;12.258;2023-07-02T16:10:29;23.90;1.00
1680;DHT22;838;51.794;12.258;2023-07-02T16:12:55;23.90;1.00
1680;DHT22;838;51.794;12.258;2023-07-02T16:15:21;23.80;1.00